KDMN/DMN METAR and TAF weather

Enter ICAO airport designator
Station Type Date Time Source
KDMN METAR 2018/04/19 12:53 UTC NOAA

KDMN 191253Z AUTO 06012KT 10SM CLR 11/M11 A3012 RMK AO2 SLP143 T01111111


Station Type Date Time Source
KDMN Decoded METAR 2018/04/19 12:53 UTC NOAA

DEMING MUNICIPAL AIRPORT, NM, United States (KDMN) 32-16N 107-43W 1311M
Apr 19, 2018 - 08:53 AM EDT / 2018.04.19 1253 UTC
Wind: from the ENE (060 degrees) at 14 MPH (12 KT):0
Visibility: 10 mile(s):0
Sky conditions: clear
Temperature: 52.0 F (11.1 C)
Dew Point: 12.0 F (-11.1 C)
Relative Humidity: 19%
Pressure (altimeter): 30.12 in. Hg (1019 hPa)
ob: KDMN 191253Z AUTO 06012KT 10SM CLR 11/M11 A3012 RMK AO2 SLP143 T01111111
cycle: 13

Station Type Date Time Source
KDMN TAF 2018/04/19 12:42 UTC NOAA

TAF KDMN 191140Z 1912/2012 06010KT P6SM SKC
FM191500 13015G25KT P6SM FEW150 FEW250
FM192300 25015G25KT P6SM FEW150 FEW250


Example: see airport list